sensor_id;sensor_type;location;lat;lon;timestamp;temperature;humidity
75961;SHT30;64644;48.914;2.254;2023-07-31T00:01:42;21.73;62.86
75961;SHT30;64644;48.914;2.254;2023-07-31T00:04:07;21.72;62.81
75961;SHT30;64644;48.914;2.254;2023-07-31T00:06:32;21.69;62.84
75961;SHT30;64644;48.914;2.254;2023-07-31T00:08:58;21.75;62.72
75961;SHT30;64644;48.914;2.254;2023-07-31T00:11:23;21.70;62.71
75961;SHT30;64644;48.914;2.254;2023-07-31T00:13:48;21.69;62.67
75961;SHT30;64644;48.914;2.254;2023-07-31T00:16:14;21.66;62.66
75961;SHT30;64644;48.914;2.254;2023-07-31T00:18:39;21.66;62.66
75961;SHT30;64644;48.914;2.254;2023-07-31T00:21:04;21.66;62.61
75961;SHT30;64644;48.914;2.254;2023-07-31T00:23:30;21.63;62.63
75961;SHT30;64644;48.914;2.254;2023-07-31T00:25:55;21.65;62.63
75961;SHT30;64644;48.914;2.254;2023-07-31T00:28:20;21.63;62.65
75961;SHT30;64644;48.914;2.254;2023-07-31T00:30:46;21.65;62.68
75961;SHT30;64644;48.914;2.254;2023-07-31T00:33:11;21.66;62.64
75961;SHT30;64644;48.914;2.254;2023-07-31T00:35:36;21.58;62.54
75961;SHT30;64644;48.914;2.254;2023-07-31T00:38:02;21.59;62.60
75961;SHT30;64644;48.914;2.254;2023-07-31T00:40:27;21.59;62.62
75961;SHT30;64644;48.914;2.254;2023-07-31T00:42:52;21.56;62.63
75961;SHT30;64644;48.914;2.254;2023-07-31T00:45:18;21.59;62.64
75961;SHT30;64644;48.914;2.254;2023-07-31T00:47:43;21.59;62.55
75961;SHT30;64644;48.914;2.254;2023-07-31T00:50:09;21.59;62.59
75961;SHT30;64644;48.914;2.254;2023-07-31T00:52:35;21.58;62.55
75961;SHT30;64644;48.914;2.254;2023-07-31T00:55:01;21.59;62.54
75961;SHT30;64644;48.914;2.254;2023-07-31T00:57:26;21.58;62.55
75961;SHT30;64644;48.914;2.254;2023-07-31T00:59:52;21.56;62.46
75961;SHT30;64644;48.914;2.254;2023-07-31T01:02:17;21.56;62.44
75961;SHT30;64644;48.914;2.254;2023-07-31T01:04:43;21.56;62.46
75961;SHT30;64644;48.914;2.254;2023-07-31T01:07:20;21.56;62.40
75961;SHT30;64644;48.914;2.254;2023-07-31T01:12:38;21.52;62.31
75961;SHT30;64644;48.914;2.254;2023-07-31T01:15:09;21.51;62.32
75961;SHT30;64644;48.914;2.254;2023-07-31T01:17:38;21.52;62.34
75961;SHT30;64644;48.914;2.254;2023-07-31T01:20:05;21.55;62.34
75961;SHT30;64644;48.914;2.254;2023-07-31T01:23:01;21.53;62.24
75961;SHT30;64644;48.914;2.254;2023-07-31T01:26:12;21.52;62.19
75961;SHT30;64644;48.914;2.254;2023-07-31T01:28:53;21.49;62.16
75961;SHT30;64644;48.914;2.254;2023-07-31T01:31:22;21.46;62.14
75961;SHT30;64644;48.914;2.254;2023-07-31T01:33:53;21.44;62.12
75961;SHT30;64644;48.914;2.254;2023-07-31T01:36:20;21.39;62.12
75961;SHT30;64644;48.914;2.254;2023-07-31T01:38:45;21.39;62.08
75961;SHT30;64644;48.914;2.254;2023-07-31T01:41:10;21.41;62.17
75961;SHT30;64644;48.914;2.254;2023-07-31T01:43:36;21.35;62.15
75961;SHT30;64644;48.914;2.254;2023-07-31T01:46:01;21.35;62.06
75961;SHT30;64644;48.914;2.254;2023-07-31T01:48:27;21.32;62.06
75961;SHT30;64644;48.914;2.254;2023-07-31T01:50:52;21.31;62.04
75961;SHT30;64644;48.914;2.254;2023-07-31T01:53:17;21.32;62.03
75961;SHT30;64644;48.914;2.254;2023-07-31T01:55:43;21.31;62.06
75961;SHT30;64644;48.914;2.254;2023-07-31T01:58:08;21.35;62.02
75961;SHT30;64644;48.914;2.254;2023-07-31T02:00:33;21.31;61.88
75961;SHT30;64644;48.914;2.254;2023-07-31T02:02:59;21.28;61.81
75961;SHT30;64644;48.914;2.254;2023-07-31T02:05:24;21.30;61.80
75961;SHT30;64644;48.914;2.254;2023-07-31T02:07:50;21.31;61.80
75961;SHT30;64644;48.914;2.254;2023-07-31T02:10:15;21.30;61.78
75961;SHT30;64644;48.914;2.254;2023-07-31T02:12:40;21.27;61.80
75961;SHT30;64644;48.914;2.254;2023-07-31T02:15:06;21.28;61.70
75961;SHT30;64644;48.914;2.254;2023-07-31T02:17:31;21.21;61.70
75961;SHT30;64644;48.914;2.254;2023-07-31T02:19:57;21.21;61.70
75961;SHT30;64644;48.914;2.254;2023-07-31T02:22:22;21.24;61.65
75961;SHT30;64644;48.914;2.254;2023-07-31T02:24:47;21.20;61.56
75961;SHT30;64644;48.914;2.254;2023-07-31T02:27:13;21.20;61.54
75961;SHT30;64644;48.914;2.254;2023-07-31T02:29:38;21.14;61.44
75961;SHT30;64644;48.914;2.254;2023-07-31T02:32:04;21.08;61.41
75961;SHT30;64644;48.914;2.254;2023-07-31T02:34:29;21.07;61.45
75961;SHT30;64644;48.914;2.254;2023-07-31T02:36:55;21.08;61.41
75961;SHT30;64644;48.914;2.254;2023-07-31T02:39:20;21.08;61.35
75961;SHT30;64644;48.914;2.254;2023-07-31T02:41:46;21.12;61.38
75961;SHT30;64644;48.914;2.254;2023-07-31T02:44:11;21.07;61.31
75961;SHT30;64644;48.914;2.254;2023-07-31T02:46:39;21.06;61.28
75961;SHT30;64644;48.914;2.254;2023-07-31T02:49:04;21.10;61.36
75961;SHT30;64644;48.914;2.254;2023-07-31T02:51:30;21.08;61.13
75961;SHT30;64644;48.914;2.254;2023-07-31T02:53:55;21.06;61.05
75961;SHT30;64644;48.914;2.254;2023-07-31T02:56:20;21.04;61.03
75961;SHT30;64644;48.914;2.254;2023-07-31T02:58:46;21.03;60.85
75961;SHT30;64644;48.914;2.254;2023-07-31T03:01:11;20.99;60.88
75961;SHT30;64644;48.914;2.254;2023-07-31T03:03:36;20.94;60.85
75961;SHT30;64644;48.914;2.254;2023-07-31T03:06:02;20.91;60.80
75961;SHT30;64644;48.914;2.254;2023-07-31T03:08:27;20.90;60.81
75961;SHT30;64644;48.914;2.254;2023-07-31T03:10:52;20.93;60.92
75961;SHT30;64644;48.914;2.254;2023-07-31T03:13:17;20.91;60.75
75961;SHT30;64644;48.914;2.254;2023-07-31T03:15:43;20.86;60.70
75961;SHT30;64644;48.914;2.254;2023-07-31T03:18:08;20.82;60.71
75961;SHT30;64644;48.914;2.254;2023-07-31T03:20:34;20.80;60.74
75961;SHT30;64644;48.914;2.254;2023-07-31T03:22:59;20.79;60.76
75961;SHT30;64644;48.914;2.254;2023-07-31T03:25:24;20.77;60.77
75961;SHT30;64644;48.914;2.254;2023-07-31T03:27:50;20.79;60.82
75961;SHT30;64644;48.914;2.254;2023-07-31T03:30:15;20.80;60.80
75961;SHT30;64644;48.914;2.254;2023-07-31T03:32:41;20.77;60.68
75961;SHT30;64644;48.914;2.254;2023-07-31T03:35:06;20.75;60.77
75961;SHT30;64644;48.914;2.254;2023-07-31T03:37:31;20.73;60.73
75961;SHT30;64644;48.914;2.254;2023-07-31T03:39:57;20.75;60.79
75961;SHT30;64644;48.914;2.254;2023-07-31T03:42:22;20.72;60.74
75961;SHT30;64644;48.914;2.254;2023-07-31T03:44:48;20.72;60.76
75961;SHT30;64644;48.914;2.254;2023-07-31T03:47:13;20.71;60.75
75961;SHT30;64644;48.914;2.254;2023-07-31T03:49:38;20.69;60.70
75961;SHT30;64644;48.914;2.254;2023-07-31T03:52:04;20.68;60.76
75961;SHT30;64644;48.914;2.254;2023-07-31T03:54:29;20.69;60.79
75961;SHT30;64644;48.914;2.254;2023-07-31T03:56:55;20.69;60.76
75961;SHT30;64644;48.914;2.254;2023-07-31T03:59:20;20.71;60.70
75961;SHT30;64644;48.914;2.254;2023-07-31T04:01:45;20.72;60.68
75961;SHT30;64644;48.914;2.254;2023-07-31T04:04:11;20.66;60.58
75961;SHT30;64644;48.914;2.254;2023-07-31T04:06:36;20.63;60.49
75961;SHT30;64644;48.914;2.254;2023-07-31T04:09:02;20.61;60.51
75961;SHT30;64644;48.914;2.254;2023-07-31T04:11:28;20.55;60.36
75961;SHT30;64644;48.914;2.254;2023-07-31T04:13:53;20.56;60.31
75961;SHT30;64644;48.914;2.254;2023-07-31T04:16:18;20.53;60.23
75961;SHT30;64644;48.914;2.254;2023-07-31T04:18:43;20.55;60.22
75961;SHT30;64644;48.914;2.254;2023-07-31T04:21:09;20.51;60.15
75961;SHT30;64644;48.914;2.254;2023-07-31T04:23:35;20.53;60.16
75961;SHT30;64644;48.914;2.254;2023-07-31T04:26:00;20.51;60.06
75961;SHT30;64644;48.914;2.254;2023-07-31T04:28:25;20.47;60.03
75961;SHT30;64644;48.914;2.254;2023-07-31T04:30:51;20.44;60.09
75961;SHT30;64644;48.914;2.254;2023-07-31T04:33:16;20.44;60.11
75961;SHT30;64644;48.914;2.254;2023-07-31T04:35:49;20.41;60.12
75961;SHT30;64644;48.914;2.254;2023-07-31T04:38:17;20.39;60.13
75961;SHT30;64644;48.914;2.254;2023-07-31T04:40:44;20.37;60.28
75961;SHT30;64644;48.914;2.254;2023-07-31T04:43:10;20.34;60.35
75961;SHT30;64644;48.914;2.254;2023-07-31T04:45:35;20.30;60.40
75961;SHT30;64644;48.914;2.254;2023-07-31T04:48:00;20.32;60.57
75961;SHT30;64644;48.914;2.254;2023-07-31T04:50:26;20.38;60.69
75961;SHT30;64644;48.914;2.254;2023-07-31T04:52:51;20.41;60.62
75961;SHT30;64644;48.914;2.254;2023-07-31T04:55:17;20.35;60.68
75961;SHT30;64644;48.914;2.254;2023-07-31T04:57:42;20.35;60.82
75961;SHT30;64644;48.914;2.254;2023-07-31T05:00:08;20.32;60.90
75961;SHT30;64644;48.914;2.254;2023-07-31T05:02:33;20.34;60.99
75961;SHT30;64644;48.914;2.254;2023-07-31T05:04:58;20.30;61.13
75961;SHT30;64644;48.914;2.254;2023-07-31T05:07:24;20.28;61.42
75961;SHT30;64644;48.914;2.254;2023-07-31T05:09:49;20.30;61.53
75961;SHT30;64644;48.914;2.254;2023-07-31T05:12:14;20.28;61.60
75961;SHT30;64644;48.914;2.254;2023-07-31T05:14:40;20.28;61.79
75961;SHT30;64644;48.914;2.254;2023-07-31T05:17:05;20.30;61.94
75961;SHT30;64644;48.914;2.254;2023-07-31T05:19:31;20.28;62.01
75961;SHT30;64644;48.914;2.254;2023-07-31T05:21:56;20.25;61.99
75961;SHT30;64644;48.914;2.254;2023-07-31T05:24:21;20.25;62.16
75961;SHT30;64644;48.914;2.254;2023-07-31T05:26:46;20.27;62.21
75961;SHT30;64644;48.914;2.254;2023-07-31T05:29:12;20.22;62.32
75961;SHT30;64644;48.914;2.254;2023-07-31T05:31:38;20.20;62.59
75961;SHT30;64644;48.914;2.254;2023-07-31T05:34:03;20.16;62.85
75961;SHT30;64644;48.914;2.254;2023-07-31T05:36:29;20.17;63.36
75961;SHT30;64644;48.914;2.254;2023-07-31T05:38:54;20.17;63.33
75961;SHT30;64644;48.914;2.254;2023-07-31T05:41:19;20.13;63.49
75961;SHT30;64644;48.914;2.254;2023-07-31T05:43:45;20.13;63.56
75961;SHT30;64644;48.914;2.254;2023-07-31T05:46:11;20.11;63.74
75961;SHT30;64644;48.914;2.254;2023-07-31T05:48:37;20.14;63.96
75961;SHT30;64644;48.914;2.254;2023-07-31T05:51:02;20.16;64.17
75961;SHT30;64644;48.914;2.254;2023-07-31T05:53:28;20.16;64.10
75961;SHT30;64644;48.914;2.254;2023-07-31T05:55:53;20.17;64.10
75961;SHT30;64644;48.914;2.254;2023-07-31T05:58:18;20.20;64.11
75961;SHT30;64644;48.914;2.254;2023-07-31T06:00:44;20.20;64.15
75961;SHT30;64644;48.914;2.254;2023-07-31T06:03:09;20.22;64.21
75961;SHT30;64644;48.914;2.254;2023-07-31T06:05:34;20.22;64.34
75961;SHT30;64644;48.914;2.254;2023-07-31T06:08:00;20.24;64.23
75961;SHT30;64644;48.914;2.254;2023-07-31T06:10:26;20.25;64.26
75961;SHT30;64644;48.914;2.254;2023-07-31T06:12:51;20.22;64.30
75961;SHT30;64644;48.914;2.254;2023-07-31T06:15:16;20.20;64.44
75961;SHT30;64644;48.914;2.254;2023-07-31T06:17:44;20.21;64.52
75961;SHT30;64644;48.914;2.254;2023-07-31T06:20:09;20.24;64.82
75961;SHT30;64644;48.914;2.254;2023-07-31T06:22:35;20.27;64.95
75961;SHT30;64644;48.914;2.254;2023-07-31T06:25:00;20.30;64.83
75961;SHT30;64644;48.914;2.254;2023-07-31T06:27:25;20.32;64.67
75961;SHT30;64644;48.914;2.254;2023-07-31T06:29:51;20.28;64.73
75961;SHT30;64644;48.914;2.254;2023-07-31T06:32:16;20.28;64.71
75961;SHT30;64644;48.914;2.254;2023-07-31T06:34:42;20.30;64.99
75961;SHT30;64644;48.914;2.254;2023-07-31T06:37:07;20.32;65.05
75961;SHT30;64644;48.914;2.254;2023-07-31T06:39:32;20.34;64.95
75961;SHT30;64644;48.914;2.254;2023-07-31T06:41:58;20.32;65.03
75961;SHT30;64644;48.914;2.254;2023-07-31T06:44:23;20.31;65.25
75961;SHT30;64644;48.914;2.254;2023-07-31T06:46:48;20.32;65.24
75961;SHT30;64644;48.914;2.254;2023-07-31T06:49:14;20.35;65.32
75961;SHT30;64644;48.914;2.254;2023-07-31T06:51:42;20.37;65.23
75961;SHT30;64644;48.914;2.254;2023-07-31T06:54:09;20.37;65.41
75961;SHT30;64644;48.914;2.254;2023-07-31T06:56:34;20.42;65.32
75961;SHT30;64644;48.914;2.254;2023-07-31T06:59:00;20.42;65.36
75961;SHT30;64644;48.914;2.254;2023-07-31T07:01:25;20.44;65.39
75961;SHT30;64644;48.914;2.254;2023-07-31T07:03:51;20.45;65.42
75961;SHT30;64644;48.914;2.254;2023-07-31T07:06:17;20.51;65.43
75961;SHT30;64644;48.914;2.254;2023-07-31T07:08:43;20.56;65.52
75961;SHT30;64644;48.914;2.254;2023-07-31T07:11:08;20.62;65.50
75961;SHT30;64644;48.914;2.254;2023-07-31T07:13:33;20.62;65.32
75961;SHT30;64644;48.914;2.254;2023-07-31T07:15:59;20.62;65.36
75961;SHT30;64644;48.914;2.254;2023-07-31T07:18:24;20.62;65.36
75961;SHT30;64644;48.914;2.254;2023-07-31T07:20:51;20.66;65.61
75961;SHT30;64644;48.914;2.254;2023-07-31T07:23:16;20.71;65.42
75961;SHT30;64644;48.914;2.254;2023-07-31T07:25:43;20.71;65.29
75961;SHT30;64644;48.914;2.254;2023-07-31T07:28:08;20.73;65.38
75961;SHT30;64644;48.914;2.254;2023-07-31T07:30:34;20.77;65.30
75961;SHT30;64644;48.914;2.254;2023-07-31T07:33:00;20.80;65.20
75961;SHT30;64644;48.914;2.254;2023-07-31T07:35:25;20.79;65.12
75961;SHT30;64644;48.914;2.254;2023-07-31T07:37:50;20.77;65.31
75961;SHT30;64644;48.914;2.254;2023-07-31T07:40:16;20.83;65.26
75961;SHT30;64644;48.914;2.254;2023-07-31T07:42:41;20.86;65.14
75961;SHT30;64644;48.914;2.254;2023-07-31T07:45:07;20.87;65.01
75961;SHT30;64644;48.914;2.254;2023-07-31T07:47:33;20.87;65.10
75961;SHT30;64644;48.914;2.254;2023-07-31T07:49:58;20.87;65.03
75961;SHT30;64644;48.914;2.254;2023-07-31T07:52:23;20.87;65.04
75961;SHT30;64644;48.914;2.254;2023-07-31T07:54:49;20.94;65.16
75961;SHT30;64644;48.914;2.254;2023-07-31T07:57:15;21.00;65.23
75961;SHT30;64644;48.914;2.254;2023-07-31T07:59:41;21.08;65.14
75961;SHT30;64644;48.914;2.254;2023-07-31T08:02:06;21.12;65.04
75961;SHT30;64644;48.914;2.254;2023-07-31T08:04:32;21.15;64.81
75961;SHT30;64644;48.914;2.254;2023-07-31T08:06:57;21.15;64.59
75961;SHT30;64644;48.914;2.254;2023-07-31T08:09:22;21.20;64.59
75961;SHT30;64644;48.914;2.254;2023-07-31T08:11:48;21.21;64.55
75961;SHT30;64644;48.914;2.254;2023-07-31T08:14:13;21.25;64.37
75961;SHT30;64644;48.914;2.254;2023-07-31T08:16:38;21.30;64.34
75961;SHT30;64644;48.914;2.254;2023-07-31T08:19:04;21.44;64.14
75961;SHT30;64644;48.914;2.254;2023-07-31T08:21:29;21.58;63.98
75961;SHT30;64644;48.914;2.254;2023-07-31T08:23:55;21.67;63.79
75961;SHT30;64644;48.914;2.254;2023-07-31T08:26:20;21.76;63.56
75961;SHT30;64644;48.914;2.254;2023-07-31T08:28:46;21.76;63.48
75961;SHT30;64644;48.914;2.254;2023-07-31T08:31:12;21.79;63.38
75961;SHT30;64644;48.914;2.254;2023-07-31T08:33:38;21.83;63.35
75961;SHT30;64644;48.914;2.254;2023-07-31T08:36:04;21.89;63.24
75961;SHT30;64644;48.914;2.254;2023-07-31T08:38:30;21.89;63.21
75961;SHT30;64644;48.914;2.254;2023-07-31T08:40:58;21.87;62.99
75961;SHT30;64644;48.914;2.254;2023-07-31T08:43:27;21.80;62.89
75961;SHT30;64644;48.914;2.254;2023-07-31T08:45:53;21.79;62.93
75961;SHT30;64644;48.914;2.254;2023-07-31T08:48:20;21.86;63.03
75961;SHT30;64644;48.914;2.254;2023-07-31T08:50:46;21.80;62.89
75961;SHT30;64644;48.914;2.254;2023-07-31T08:53:11;21.82;62.87
75961;SHT30;64644;48.914;2.254;2023-07-31T08:55:38;21.78;62.82
75961;SHT30;64644;48.914;2.254;2023-07-31T08:58:04;21.76;62.85
75961;SHT30;64644;48.914;2.254;2023-07-31T09:00:32;21.78;62.85
75961;SHT30;64644;48.914;2.254;2023-07-31T09:03:27;21.78;62.91
75961;SHT30;64644;48.914;2.254;2023-07-31T09:05:56;21.75;62.84
75961;SHT30;64644;48.914;2.254;2023-07-31T09:08:21;21.72;62.96
75961;SHT30;64644;48.914;2.254;2023-07-31T09:10:47;21.78;63.09
75961;SHT30;64644;48.914;2.254;2023-07-31T09:13:16;21.86;63.13
75961;SHT30;64644;48.914;2.254;2023-07-31T09:15:46;21.94;63.20
75961;SHT30;64644;48.914;2.254;2023-07-31T09:18:11;21.94;62.97
75961;SHT30;64644;48.914;2.254;2023-07-31T09:20:37;21.93;62.92
75961;SHT30;64644;48.914;2.254;2023-07-31T09:23:10;21.82;63.06
75961;SHT30;64644;48.914;2.254;2023-07-31T09:25:36;21.79;63.39
75961;SHT30;64644;48.914;2.254;2023-07-31T09:28:07;21.79;63.55
75961;SHT30;64644;48.914;2.254;2023-07-31T09:30:49;21.79;63.52
75961;SHT30;64644;48.914;2.254;2023-07-31T09:33:14;21.80;63.65
75961;SHT30;64644;48.914;2.254;2023-07-31T09:35:40;21.76;63.63
75961;SHT30;64644;48.914;2.254;2023-07-31T09:38:08;21.72;63.66
75961;SHT30;64644;48.914;2.254;2023-07-31T09:40:36;21.70;63.70
75961;SHT30;64644;48.914;2.254;2023-07-31T09:43:06;21.76;63.88
75961;SHT30;64644;48.914;2.254;2023-07-31T09:45:40;21.80;63.78
75961;SHT30;64644;48.914;2.254;2023-07-31T09:50:39;21.75;64.02
75961;SHT30;64644;48.914;2.254;2023-07-31T09:53:05;21.79;64.03
75961;SHT30;64644;48.914;2.254;2023-07-31T09:55:31;21.79;64.15
75961;SHT30;64644;48.914;2.254;2023-07-31T09:57:57;21.83;64.16
75961;SHT30;64644;48.914;2.254;2023-07-31T10:00:23;21.78;64.16
75961;SHT30;64644;48.914;2.254;2023-07-31T10:02:50;21.76;64.23
75961;SHT30;64644;48.914;2.254;2023-07-31T10:05:17;21.65;64.91
75961;SHT30;64644;48.914;2.254;2023-07-31T10:07:46;21.46;65.47
75961;SHT30;64644;48.914;2.254;2023-07-31T10:10:15;21.35;65.96
75961;SHT30;64644;48.914;2.254;2023-07-31T10:12:42;21.28;66.42
75961;SHT30;64644;48.914;2.254;2023-07-31T10:15:09;21.27;66.75
75961;SHT30;64644;48.914;2.254;2023-07-31T10:17:35;21.21;66.97
75961;SHT30;64644;48.914;2.254;2023-07-31T10:20:02;21.18;67.43
75961;SHT30;64644;48.914;2.254;2023-07-31T10:22:30;21.08;67.47
75961;SHT30;64644;48.914;2.254;2023-07-31T10:24:58;21.04;67.87
75961;SHT30;64644;48.914;2.254;2023-07-31T10:27:24;21.03;68.71
75961;SHT30;64644;48.914;2.254;2023-07-31T10:29:50;21.03;68.77
75961;SHT30;64644;48.914;2.254;2023-07-31T10:32:16;20.97;69.34
75961;SHT30;64644;48.914;2.254;2023-07-31T10:34:42;20.97;69.37
75961;SHT30;64644;48.914;2.254;2023-07-31T10:39:59;21.00;69.74
75961;SHT30;64644;48.914;2.254;2023-07-31T10:42:36;21.01;69.40
75961;SHT30;64644;48.914;2.254;2023-07-31T10:45:07;20.97;69.45
75961;SHT30;64644;48.914;2.254;2023-07-31T10:47:42;20.99;69.53
75961;SHT30;64644;48.914;2.254;2023-07-31T10:50:22;20.96;69.41
75961;SHT30;64644;48.914;2.254;2023-07-31T10:52:50;20.91;69.78
75961;SHT30;64644;48.914;2.254;2023-07-31T10:55:16;20.93;69.94
75961;SHT30;64644;48.914;2.254;2023-07-31T10:57:47;20.97;70.26
75961;SHT30;64644;48.914;2.254;2023-07-31T11:00:28;21.00;70.17
75961;SHT30;64644;48.914;2.254;2023-07-31T11:08:15;20.87;70.23
75961;SHT30;64644;48.914;2.254;2023-07-31T11:10:42;20.73;72.63
75961;SHT30;64644;48.914;2.254;2023-07-31T11:13:08;20.48;74.08
75961;SHT30;64644;48.914;2.254;2023-07-31T11:15:33;20.28;74.80
75961;SHT30;64644;48.914;2.254;2023-07-31T11:18:00;20.25;74.00
75961;SHT30;64644;48.914;2.254;2023-07-31T11:20:30;20.31;74.15
75961;SHT30;64644;48.914;2.254;2023-07-31T11:23:07;20.41;73.79
75961;SHT30;64644;48.914;2.254;2023-07-31T11:25:34;20.42;73.05
75961;SHT30;64644;48.914;2.254;2023-07-31T11:28:07;20.47;72.68
75961;SHT30;64644;48.914;2.254;2023-07-31T11:30:33;20.48;72.54
75961;SHT30;64644;48.914;2.254;2023-07-31T11:33:00;20.51;73.26
75961;SHT30;64644;48.914;2.254;2023-07-31T11:35:26;20.55;73.61
75961;SHT30;64644;48.914;2.254;2023-07-31T11:37:51;20.62;72.88
75961;SHT30;64644;48.914;2.254;2023-07-31T11:40:18;20.62;72.57
75961;SHT30;64644;48.914;2.254;2023-07-31T11:42:43;20.63;72.59
75961;SHT30;64644;48.914;2.254;2023-07-31T11:45:09;20.66;72.73
75961;SHT30;64644;48.914;2.254;2023-07-31T11:47:36;20.75;72.51
75961;SHT30;64644;48.914;2.254;2023-07-31T11:50:03;20.80;72.43
75961;SHT30;64644;48.914;2.254;2023-07-31T11:52:32;20.83;72.63
75961;SHT30;64644;48.914;2.254;2023-07-31T11:54:59;20.86;72.54
75961;SHT30;64644;48.914;2.254;2023-07-31T11:57:25;20.89;72.38
75961;SHT30;64644;48.914;2.254;2023-07-31T11:59:51;20.93;72.45
75961;SHT30;64644;48.914;2.254;2023-07-31T12:02:18;20.94;72.30
75961;SHT30;64644;48.914;2.254;2023-07-31T12:04:43;20.97;72.54
75961;SHT30;64644;48.914;2.254;2023-07-31T12:07:10;21.00;72.15
75961;SHT30;64644;48.914;2.254;2023-07-31T12:09:37;21.01;72.11
75961;SHT30;64644;48.914;2.254;2023-07-31T12:12:08;21.04;72.15
75961;SHT30;64644;48.914;2.254;2023-07-31T12:14:33;21.04;72.29
75961;SHT30;64644;48.914;2.254;2023-07-31T12:17:00;21.04;72.35
75961;SHT30;64644;48.914;2.254;2023-07-31T12:19:29;21.10;72.35
75961;SHT30;64644;48.914;2.254;2023-07-31T12:21:58;21.12;72.28
75961;SHT30;64644;48.914;2.254;2023-07-31T12:24:26;21.11;72.25
75961;SHT30;64644;48.914;2.254;2023-07-31T12:26:51;21.12;72.25
75961;SHT30;64644;48.914;2.254;2023-07-31T12:29:18;21.11;72.30
75961;SHT30;64644;48.914;2.254;2023-07-31T12:31:43;21.10;72.31
75961;SHT30;64644;48.914;2.254;2023-07-31T12:34:26;21.10;72.27
75961;SHT30;64644;48.914;2.254;2023-07-31T12:36:54;21.14;72.46
75961;SHT30;64644;48.914;2.254;2023-07-31T12:39:19;21.17;72.50
75961;SHT30;64644;48.914;2.254;2023-07-31T12:41:44;21.24;72.52
75961;SHT30;64644;48.914;2.254;2023-07-31T12:44:10;21.30;72.50
75961;SHT30;64644;48.914;2.254;2023-07-31T12:46:35;21.38;72.29
75961;SHT30;64644;48.914;2.254;2023-07-31T12:49:02;21.48;72.09
75961;SHT30;64644;48.914;2.254;2023-07-31T12:51:27;21.53;71.74
75961;SHT30;64644;48.914;2.254;2023-07-31T12:53:53;21.58;71.49
75961;SHT30;64644;48.914;2.254;2023-07-31T12:56:18;21.62;71.27
75961;SHT30;64644;48.914;2.254;2023-07-31T12:58:43;21.72;71.45
75961;SHT30;64644;48.914;2.254;2023-07-31T13:01:09;21.72;71.01
75961;SHT30;64644;48.914;2.254;2023-07-31T13:03:34;21.75;71.02
75961;SHT30;64644;48.914;2.254;2023-07-31T13:05:59;21.78;71.12
75961;SHT30;64644;48.914;2.254;2023-07-31T13:08:25;21.82;71.10
75961;SHT30;64644;48.914;2.254;2023-07-31T13:10:50;21.85;70.96
75961;SHT30;64644;48.914;2.254;2023-07-31T13:13:15;21.86;70.57
75961;SHT30;64644;48.914;2.254;2023-07-31T13:15:41;21.87;70.49
75961;SHT30;64644;48.914;2.254;2023-07-31T13:18:06;21.90;70.38
75961;SHT30;64644;48.914;2.254;2023-07-31T13:20:31;21.90;70.21
75961;SHT30;64644;48.914;2.254;2023-07-31T13:22:57;21.93;70.30
75961;SHT30;64644;48.914;2.254;2023-07-31T13:25:22;21.93;70.10
75961;SHT30;64644;48.914;2.254;2023-07-31T13:27:47;21.96;70.32
75961;SHT30;64644;48.914;2.254;2023-07-31T13:30:13;22.00;70.19
75961;SHT30;64644;48.914;2.254;2023-07-31T13:32:38;22.03;70.05
75961;SHT30;64644;48.914;2.254;2023-07-31T13:35:08;22.01;69.78
75961;SHT30;64644;48.914;2.254;2023-07-31T13:37:34;22.03;69.75
75961;SHT30;64644;48.914;2.254;2023-07-31T13:39:59;22.03;69.77
75961;SHT30;64644;48.914;2.254;2023-07-31T13:42:25;21.97;70.02
75961;SHT30;64644;48.914;2.254;2023-07-31T13:44:50;21.96;70.05
75961;SHT30;64644;48.914;2.254;2023-07-31T13:47:16;21.89;70.23
75961;SHT30;64644;48.914;2.254;2023-07-31T13:49:41;21.82;70.66
75961;SHT30;64644;48.914;2.254;2023-07-31T13:52:08;21.73;70.76
75961;SHT30;64644;48.914;2.254;2023-07-31T13:54:33;21.66;71.19
75961;SHT30;64644;48.914;2.254;2023-07-31T13:56:59;21.61;71.60
75961;SHT30;64644;48.914;2.254;2023-07-31T13:59:24;21.61;71.87
75961;SHT30;64644;48.914;2.254;2023-07-31T14:01:50;21.55;72.48
75961;SHT30;64644;48.914;2.254;2023-07-31T14:04:16;21.56;72.82
75961;SHT30;64644;48.914;2.254;2023-07-31T14:06:42;21.55;72.63
75961;SHT30;64644;48.914;2.254;2023-07-31T14:09:08;21.51;72.68
75961;SHT30;64644;48.914;2.254;2023-07-31T14:11:33;21.49;73.10
75961;SHT30;64644;48.914;2.254;2023-07-31T14:13:59;21.41;73.42
75961;SHT30;64644;48.914;2.254;2023-07-31T14:16:24;21.35;76.70
75961;SHT30;64644;48.914;2.254;2023-07-31T14:18:50;21.24;77.40
75961;SHT30;64644;48.914;2.254;2023-07-31T14:21:15;21.12;75.20
75961;SHT30;64644;48.914;2.254;2023-07-31T14:23:41;21.12;74.62
75961;SHT30;64644;48.914;2.254;2023-07-31T14:26:06;21.10;74.51
75961;SHT30;64644;48.914;2.254;2023-07-31T14:28:32;21.14;74.57
75961;SHT30;64644;48.914;2.254;2023-07-31T14:30:58;21.18;74.20
75961;SHT30;64644;48.914;2.254;2023-07-31T14:33:23;21.23;74.21
75961;SHT30;64644;48.914;2.254;2023-07-31T14:35:49;21.28;74.17
75961;SHT30;64644;48.914;2.254;2023-07-31T14:38:14;21.30;74.32
75961;SHT30;64644;48.914;2.254;2023-07-31T14:40:40;21.37;74.03
75961;SHT30;64644;48.914;2.254;2023-07-31T14:43:06;21.42;73.80
75961;SHT30;64644;48.914;2.254;2023-07-31T14:45:31;21.46;74.02
75961;SHT30;64644;48.914;2.254;2023-07-31T14:47:56;21.53;73.68
75961;SHT30;64644;48.914;2.254;2023-07-31T14:50:22;21.58;73.72
75961;SHT30;64644;48.914;2.254;2023-07-31T14:52:48;21.66;73.68
75961;SHT30;64644;48.914;2.254;2023-07-31T14:55:14;21.67;73.32
75961;SHT30;64644;48.914;2.254;2023-07-31T14:57:39;21.67;73.47
75961;SHT30;64644;48.914;2.254;2023-07-31T15:00:05;21.73;73.25
75961;SHT30;64644;48.914;2.254;2023-07-31T15:02:40;21.69;73.15
75961;SHT30;64644;48.914;2.254;2023-07-31T15:05:06;21.72;73.02
75961;SHT30;64644;48.914;2.254;2023-07-31T15:07:32;21.73;73.13
75961;SHT30;64644;48.914;2.254;2023-07-31T15:09:57;21.75;73.17
75961;SHT30;64644;48.914;2.254;2023-07-31T15:12:23;21.75;73.02
75961;SHT30;64644;48.914;2.254;2023-07-31T15:14:49;21.76;72.96
75961;SHT30;64644;48.914;2.254;2023-07-31T15:17:15;21.79;72.98
75961;SHT30;64644;48.914;2.254;2023-07-31T15:19:40;21.80;73.17
75961;SHT30;64644;48.914;2.254;2023-07-31T15:22:05;21.78;73.41
75961;SHT30;64644;48.914;2.254;2023-07-31T15:24:31;21.78;73.13
75961;SHT30;64644;48.914;2.254;2023-07-31T15:26:56;21.76;73.58
75961;SHT30;64644;48.914;2.254;2023-07-31T15:29:21;21.73;72.91
75961;SHT30;64644;48.914;2.254;2023-07-31T15:31:47;21.66;73.18
75961;SHT30;64644;48.914;2.254;2023-07-31T15:34:13;21.63;73.47
75961;SHT30;64644;48.914;2.254;2023-07-31T15:36:39;21.66;73.13
75961;SHT30;64644;48.914;2.254;2023-07-31T15:39:05;21.62;73.07